createdAt,value
2023-04-30T00:02:20.251Z,6.00
2023-04-30T00:07:24.064Z,4.40
2023-04-30T00:12:26.503Z,7.10
2023-04-30T00:17:28.641Z,6.37
2023-04-30T00:22:33.536Z,7.73
2023-04-30T00:27:35.819Z,5.30
2023-04-30T00:32:38.162Z,6.23
2023-04-30T00:37:42.538Z,5.47
2023-04-30T00:42:44.699Z,7.40
2023-04-30T00:47:47.128Z,6.87
2023-04-30T00:52:50.711Z,8.53
2023-04-30T00:57:53.218Z,6.73
2023-04-30T01:02:57.021Z,9.83
2023-04-30T01:08:00.713Z,8.20
2023-04-30T01:13:09.547Z,8.07
2023-04-30T01:18:19.902Z,7.47
2023-04-30T01:23:37.418Z,8.50
2023-04-30T01:28:43.977Z,7.13
2023-04-30T01:33:46.419Z,7.87
2023-04-30T01:39:09.067Z,10.10
2023-04-30T01:44:34.538Z,7.83
2023-04-30T01:49:45.888Z,9.43
2023-04-30T01:54:53.981Z,8.47
2023-04-30T01:59:57.790Z,8.50
2023-04-30T02:04:59.857Z,8.73
2023-04-30T02:10:02.211Z,8.87
2023-04-30T02:15:07.050Z,10.07
2023-04-30T02:20:10.507Z,8.77
2023-04-30T02:25:12.879Z,10.20
2023-04-30T02:30:16.210Z,10.13
2023-04-30T02:35:18.671Z,10.73
2023-04-30T02:40:21.161Z,9.23
2023-04-30T02:45:25.051Z,11.97
2023-04-30T02:50:27.151Z,10.10
2023-04-30T02:55:29.540Z,10.67
2023-04-30T03:00:32.929Z,9.23
2023-04-30T03:05:35.311Z,10.13
2023-04-30T03:10:37.526Z,9.97
2023-04-30T03:15:41.187Z,9.93
2023-04-30T03:20:43.512Z,9.57
2023-04-30T03:25:45.873Z,8.67
2023-04-30T03:30:50.152Z,10.27
2023-04-30T03:35:52.098Z,10.17
2023-04-30T03:40:54.588Z,9.23
2023-04-30T03:45:58.255Z,10.63
2023-04-30T03:51:00.301Z,12.30
2023-04-30T03:56:02.339Z,9.67
2023-04-30T04:01:07.190Z,12.30
2023-04-30T04:06:09.698Z,12.00
2023-04-30T04:11:12.315Z,11.93
2023-04-30T04:16:16.189Z,13.47
2023-04-30T04:21:18.526Z,11.40
2023-04-30T04:26:22.004Z,11.10
2023-04-30T04:31:25.414Z,9.40
2023-04-30T04:36:28.952Z,10.87
2023-04-30T04:41:31.175Z,9.67
2023-04-30T04:46:38.719Z,9.43
2023-04-30T04:51:40.906Z,11.03
2023-04-30T04:56:43.210Z,8.93
2023-04-30T05:01:47.007Z,10.63
2023-04-30T05:06:48.992Z,11.63
2023-04-30T05:11:51.010Z,11.43
2023-04-30T05:16:54.475Z,11.33
2023-04-30T05:21:56.751Z,11.03
2023-04-30T05:26:59.114Z,11.30
2023-04-30T05:32:03.338Z,12.53
2023-04-30T05:37:05.624Z,10.70
2023-04-30T05:42:07.719Z,10.03
2023-04-30T05:47:11.604Z,10.57
2023-04-30T05:52:15.516Z,10.07
2023-04-30T05:57:17.579Z,12.90
2023-04-30T06:02:21.106Z,11.73
2023-04-30T06:07:23.242Z,11.60
2023-04-30T06:12:25.465Z,11.03
2023-04-30T06:17:29.359Z,9.90
2023-04-30T06:22:31.868Z,11.10
2023-04-30T06:27:34.148Z,13.90
2023-04-30T06:32:37.716Z,9.77
2023-04-30T06:37:39.632Z,10.50
2023-04-30T06:42:41.357Z,10.80
2023-04-30T06:47:46.458Z,10.60
2023-04-30T06:52:49.016Z,10.40
2023-04-30T06:57:50.884Z,11.43
2023-04-30T07:03:28.123Z,10.20
2023-04-30T07:09:17.580Z,10.77
2023-04-30T07:14:56.046Z,9.40
2023-04-30T07:19:59.614Z,10.97
2023-04-30T07:25:01.967Z,8.37
2023-04-30T07:30:04.608Z,8.93
2023-04-30T07:35:09.071Z,8.67
2023-04-30T07:40:21.892Z,8.33
2023-04-30T07:45:32.016Z,7.57
2023-04-30T07:50:35.333Z,8.40
2023-04-30T07:55:37.686Z,7.38
2023-04-30T08:00:39.974Z,9.63
2023-04-30T08:05:43.689Z,7.55
2023-04-30T08:10:45.899Z,9.95
2023-04-30T08:15:48.207Z,7.53
2023-04-30T08:20:52.129Z,7.30
2023-04-30T08:25:54.580Z,7.07
2023-04-30T08:30:56.686Z,5.80
2023-04-30T08:36:00.560Z,6.15
2023-04-30T08:41:10.499Z,5.95
2023-04-30T08:46:14.714Z,5.32
2023-04-30T08:51:18.659Z,6.80
2023-04-30T08:56:23.045Z,4.68
2023-04-30T09:01:27.163Z,4.95
2023-04-30T09:06:31.781Z,4.90
2023-04-30T09:11:33.945Z,5.75
2023-04-30T09:16:47.748Z,5.40
2023-04-30T09:21:51.295Z,6.25
2023-04-30T09:26:53.503Z,4.43
2023-04-30T09:32:10.443Z,4.45
2023-04-30T09:37:14.568Z,5.47
2023-04-30T09:42:16.863Z,4.63
2023-04-30T09:47:20.555Z,4.53
2023-04-30T09:52:24.007Z,3.40
2023-04-30T09:57:26.696Z,3.88
2023-04-30T10:02:29.464Z,7.47
2023-04-30T10:07:37.702Z,3.97
2023-04-30T10:12:44.631Z,3.25
2023-04-30T10:17:51.789Z,2.88
2023-04-30T10:22:55.406Z,2.50
2023-04-30T10:27:57.728Z,1.92
2023-04-30T10:33:13.590Z,2.70
2023-04-30T10:38:25.267Z,2.20
2023-04-30T10:43:27.686Z,2.45
2023-04-30T10:48:31.398Z,2.72
2023-04-30T10:53:40.348Z,2.65
2023-04-30T10:58:44.294Z,2.33
2023-04-30T11:04:06.670Z,2.28
2023-04-30T11:09:10.663Z,2.47
2023-04-30T11:14:13.641Z,2.22
2023-04-30T11:19:16.468Z,2.58
2023-04-30T11:24:21.512Z,2.28
2023-04-30T11:29:24.879Z,2.80
2023-04-30T11:34:27.754Z,2.25
2023-04-30T11:39:33.769Z,1.90
2023-04-30T11:44:36.053Z,2.05
2023-04-30T11:49:39.048Z,2.08
2023-04-30T11:54:42.716Z,2.85
2023-04-30T11:59:45.346Z,5.10
2023-04-30T12:04:48.878Z,3.83
2023-04-30T12:09:56.563Z,2.38
2023-04-30T12:14:59.577Z,1.70
2023-04-30T12:20:01.861Z,2.28
2023-04-30T12:25:09.633Z,1.70
2023-04-30T12:30:12.217Z,1.85
2023-04-30T12:35:19.871Z,1.85
2023-04-30T12:40:28.739Z,3.75
2023-04-30T12:45:47.741Z,2.55
2023-04-30T12:50:52.796Z,3.60
2023-04-30T12:56:16.630Z,3.30
2023-04-30T13:01:20.659Z,1.75
2023-04-30T13:06:23.869Z,1.77
2023-04-30T13:11:27.839Z,1.73
2023-04-30T13:16:31.185Z,1.70
2023-04-30T13:21:33.352Z,1.85
2023-04-30T13:26:37.906Z,2.17
2023-04-30T13:31:40.213Z,3.05
2023-04-30T13:36:42.625Z,2.92
2023-04-30T13:41:47.921Z,3.17
2023-04-30T13:46:50.378Z,2.45
2023-04-30T13:51:52.566Z,2.42
2023-04-30T13:56:56.897Z,2.05
2023-04-30T14:01:58.946Z,3.33
2023-04-30T14:07:01.533Z,2.03
2023-04-30T14:12:05.253Z,2.78
2023-04-30T14:17:07.642Z,1.65
2023-04-30T14:22:09.894Z,2.08
2023-04-30T14:27:13.534Z,3.33
2023-04-30T14:32:16.189Z,2.70
2023-04-30T14:37:18.483Z,1.52
2023-04-30T14:42:22.330Z,2.60
2023-04-30T14:47:27.485Z,3.10
2023-04-30T14:52:29.747Z,2.78
2023-04-30T14:57:34.603Z,1.42
2023-04-30T15:02:37.011Z,2.00
2023-04-30T15:07:39.128Z,2.55
2023-04-30T15:12:43.761Z,1.65
2023-04-30T15:17:45.986Z,2.60
2023-04-30T15:22:48.403Z,2.80
2023-04-30T15:27:52.235Z,2.13
2023-04-30T15:32:54.244Z,2.53
2023-04-30T15:37:56.476Z,1.60
2023-04-30T15:42:59.903Z,2.38
2023-04-30T15:48:02.081Z,3.38
2023-04-30T15:53:04.048Z,3.13
2023-04-30T15:58:07.481Z,2.55
2023-04-30T16:03:09.747Z,2.40
2023-04-30T16:08:12.426Z,4.75
2023-04-30T16:13:15.894Z,2.63
2023-04-30T16:18:18.040Z,3.50
2023-04-30T16:23:20.020Z,5.30
2023-04-30T16:28:23.789Z,2.60
2023-04-30T16:33:26.413Z,2.13
2023-04-30T16:38:28.760Z,3.77
2023-04-30T16:43:32.430Z,3.63
2023-04-30T16:48:35.321Z,3.05
2023-04-30T16:53:37.517Z,2.38
2023-04-30T16:58:41.270Z,2.05
2023-04-30T17:03:43.390Z,3.43
2023-04-30T17:08:45.799Z,2.43
2023-04-30T17:13:49.124Z,2.40
2023-04-30T17:18:52.153Z,2.60
2023-04-30T17:23:54.393Z,3.63
2023-04-30T17:28:57.805Z,3.63
2023-04-30T17:34:01.867Z,2.77
2023-04-30T17:39:06.069Z,2.93
2023-04-30T17:44:10.124Z,2.70
2023-04-30T17:49:12.765Z,3.83
2023-04-30T17:54:15.346Z,2.53
2023-04-30T17:59:19.763Z,3.47
2023-04-30T18:04:23.783Z,5.03
2023-04-30T18:09:27.069Z,4.13
2023-04-30T18:14:30.611Z,4.37
2023-04-30T18:19:33.284Z,4.27
2023-04-30T18:24:35.761Z,5.10
2023-04-30T18:29:39.782Z,3.67
2023-04-30T18:34:43.215Z,4.73
2023-04-30T18:39:45.292Z,4.93
2023-04-30T18:44:49.135Z,5.27
2023-04-30T18:49:51.269Z,4.37
2023-04-30T18:54:54.151Z,3.10
2023-04-30T18:59:58.946Z,4.03
2023-04-30T19:05:02.804Z,4.97
2023-04-30T19:10:05.965Z,4.03
2023-04-30T19:15:13.180Z,4.30
2023-04-30T19:20:16.484Z,4.67
2023-04-30T19:25:20.049Z,3.10
2023-04-30T19:30:24.309Z,6.37
2023-04-30T19:35:28.868Z,3.63
2023-04-30T19:40:32.552Z,5.13
2023-04-30T19:45:37.019Z,4.80
2023-04-30T19:50:43.273Z,4.83
2023-04-30T19:55:48.203Z,5.83
2023-04-30T20:00:54.265Z,5.73
2023-04-30T20:05:57.121Z,5.60
2023-04-30T20:11:02.003Z,10.57
2023-04-30T20:16:10.520Z,4.10
2023-04-30T20:21:13.755Z,5.90
2023-04-30T20:26:17.528Z,4.30
2023-04-30T20:31:21.998Z,4.60
2023-04-30T20:36:25.508Z,4.13
2023-04-30T20:41:28.912Z,6.23
2023-04-30T20:46:32.921Z,4.47
2023-04-30T20:51:35.362Z,5.17
2023-04-30T20:56:37.823Z,3.20
2023-04-30T21:01:41.963Z,6.90
2023-04-30T21:06:44.374Z,8.50
2023-04-30T21:11:46.881Z,5.33
2023-04-30T21:16:51.471Z,4.10
2023-04-30T21:21:53.998Z,3.93
2023-04-30T21:26:56.447Z,5.90
2023-04-30T21:31:59.969Z,5.63
2023-04-30T21:37:02.064Z,5.73
2023-04-30T21:42:05.218Z,5.53
2023-04-30T21:47:10.209Z,6.13
2023-04-30T21:52:12.343Z,8.37
2023-04-30T21:57:14.944Z,6.83
2023-04-30T22:02:23.339Z,6.03
2023-04-30T22:07:28.279Z,3.73
2023-04-30T22:12:30.248Z,4.10
2023-04-30T22:17:33.744Z,5.33
2023-04-30T22:22:36.532Z,4.97
2023-04-30T22:27:38.812Z,5.93
2023-04-30T22:32:42.879Z,7.10
2023-04-30T22:37:45.920Z,4.93
2023-04-30T22:42:48.369Z,5.33
2023-04-30T22:47:53.982Z,5.33
2023-04-30T22:52:56.521Z,5.87
2023-04-30T22:58:00.010Z,4.63
2023-04-30T23:03:03.606Z,5.57
2023-04-30T23:08:06.197Z,5.70
2023-04-30T23:13:08.256Z,5.90
2023-04-30T23:18:12.135Z,4.23
2023-04-30T23:23:14.377Z,5.57
2023-04-30T23:28:16.415Z,6.90
2023-04-30T23:33:20.066Z,5.63
2023-04-30T23:38:22.325Z,8.03
2023-04-30T23:43:25.498Z,6.83
2023-04-30T23:48:30.583Z,7.27
2023-04-30T23:53:33.210Z,11.47
2023-04-30T23:58:35.314Z,6.77
